createdAt,value
2022-09-01T00:00:11.255Z,15.40
2022-09-01T00:04:23.240Z,15.30
2022-09-01T00:06:26.620Z,15.30
2022-09-01T00:08:29.930Z,15.30
2022-09-01T00:10:33.054Z,15.40
2022-09-01T00:12:36.399Z,15.40
2022-09-01T00:14:41.941Z,15.40
2022-09-01T00:16:45.173Z,15.50
2022-09-01T00:18:54.280Z,15.40
2022-09-01T00:20:59.251Z,15.30
2022-09-01T00:23:02.925Z,15.30
2022-09-01T00:25:08.088Z,15.30
2022-09-01T00:27:11.361Z,15.30
2022-09-01T00:29:16.437Z,15.30
2022-09-01T00:33:24.140Z,15.20
2022-09-01T00:35:28.992Z,15.30
2022-09-01T00:37:32.207Z,15.20
2022-09-01T00:39:35.642Z,15.30
2022-09-01T00:41:45.078Z,15.30
2022-09-01T00:43:52.047Z,15.30
2022-09-01T00:45:58.205Z,15.30
2022-09-01T00:48:06.012Z,15.30
2022-09-01T00:50:13.097Z,15.30
2022-09-01T00:52:22.086Z,15.30
2022-09-01T00:54:30.103Z,15.30
2022-09-01T00:56:35.249Z,15.30
2022-09-01T00:58:39.829Z,15.30
2022-09-01T01:00:43.776Z,15.20
2022-09-01T01:02:48.895Z,15.20
2022-09-01T01:04:52.924Z,15.20
2022-09-01T01:07:03.156Z,15.20
2022-09-01T01:13:22.051Z,15.20
2022-09-01T01:17:29.044Z,15.30
2022-09-01T01:19:58.668Z,15.30
2022-09-01T01:22:21.624Z,15.20
2022-09-01T01:24:27.691Z,15.30
2022-09-01T01:26:30.904Z,15.30
2022-09-01T01:28:36.137Z,15.30
2022-09-01T01:30:41.902Z,15.20
2022-09-01T01:32:47.887Z,15.10
2022-09-01T01:34:52.081Z,15.00
2022-09-01T01:37:01.727Z,15.10
2022-09-01T01:39:08.537Z,15.00
2022-09-01T01:41:14.125Z,15.00
2022-09-01T01:43:20.056Z,14.80
2022-09-01T01:45:25.950Z,14.70
2022-09-01T01:47:29.317Z,14.70
2022-09-01T01:51:37.130Z,14.70
2022-09-01T01:53:41.052Z,14.80
2022-09-01T01:55:44.854Z,14.70
2022-09-01T01:57:52.482Z,14.80
2022-09-01T01:59:57.476Z,14.70
2022-09-01T02:02:04.086Z,14.70
2022-09-01T02:04:07.434Z,14.80
2022-09-01T02:06:12.156Z,14.80
2022-09-01T02:08:18.484Z,14.60
2022-09-01T02:10:22.757Z,14.60
2022-09-01T02:14:34.227Z,14.60
2022-09-01T02:16:38.415Z,14.60
2022-09-01T02:18:44.450Z,14.60
2022-09-01T02:20:49.508Z,14.60
2022-09-01T02:22:55.475Z,14.60
2022-09-01T02:25:01.036Z,14.50
2022-09-01T02:27:05.635Z,14.50
2022-09-01T02:29:18.146Z,14.60
2022-09-01T02:33:28.517Z,14.50
2022-09-01T02:35:32.030Z,14.50
2022-09-01T02:37:36.098Z,14.50
2022-09-01T02:39:39.509Z,14.40
2022-09-01T02:41:43.165Z,14.40
2022-09-01T02:43:46.392Z,14.30
2022-09-01T02:45:54.582Z,14.30
2022-09-01T02:50:03.827Z,14.40
2022-09-01T02:52:07.041Z,14.40
2022-09-01T02:54:10.753Z,14.40
2022-09-01T02:56:15.639Z,14.30
2022-09-01T02:58:20.264Z,14.30
2022-09-01T03:00:31.457Z,14.30
2022-09-01T03:02:36.846Z,14.40
2022-09-01T03:04:41.676Z,14.40
2022-09-01T03:06:45.851Z,14.50
2022-09-01T03:08:49.625Z,14.40
2022-09-01T03:10:55.270Z,14.30
2022-09-01T03:12:58.778Z,14.40
2022-09-01T03:15:02.370Z,14.40
2022-09-01T03:17:05.646Z,14.30
2022-09-01T03:21:17.801Z,14.30
2022-09-01T03:23:21.147Z,14.20
2022-09-01T03:25:25.137Z,14.30
2022-09-01T03:27:29.365Z,14.20
2022-09-01T03:29:32.565Z,14.30
2022-09-01T03:31:36.192Z,14.30
2022-09-01T03:33:39.843Z,14.30
2022-09-01T03:35:43.032Z,14.20
2022-09-01T03:37:47.671Z,14.30
2022-09-01T03:39:50.945Z,14.10
2022-09-01T03:44:03.303Z,13.80
2022-09-01T03:46:06.841Z,14.10
2022-09-01T03:48:11.484Z,14.20
2022-09-01T03:50:20.458Z,14.20
2022-09-01T03:52:27.819Z,14.20
2022-09-01T03:54:33.049Z,14.10
2022-09-01T03:56:39.102Z,14.00
2022-09-01T03:58:45.467Z,14.10
2022-09-01T04:00:51.752Z,14.10
2022-09-01T04:02:57.565Z,14.10
2022-09-01T04:05:02.051Z,14.00
2022-09-01T04:07:07.525Z,14.00
2022-09-01T04:09:10.985Z,14.10
2022-09-01T04:11:19.074Z,14.10
2022-09-01T04:13:26.193Z,14.20
2022-09-01T04:15:29.989Z,14.10
2022-09-01T04:17:50.972Z,14.10
2022-09-01T04:22:01.669Z,13.90
2022-09-01T04:24:06.343Z,13.80
2022-09-01T04:26:14.730Z,13.80
2022-09-01T04:28:24.845Z,13.80
2022-09-01T04:30:32.441Z,13.90
2022-09-01T04:36:46.828Z,13.90
2022-09-01T04:38:56.235Z,13.80
2022-09-01T04:40:59.556Z,13.80
2022-09-01T04:43:02.781Z,13.80
2022-09-01T04:45:11.257Z,13.80
2022-09-01T04:47:15.022Z,13.80
2022-09-01T04:49:22.548Z,13.80
2022-09-01T04:51:28.078Z,13.70
2022-09-01T04:53:31.775Z,13.70
2022-09-01T04:55:35.021Z,13.80
2022-09-01T04:57:39.172Z,13.80
2022-09-01T04:59:45.793Z,14.00
2022-09-01T05:01:54.316Z,14.00
2022-09-01T05:04:01.495Z,14.20
2022-09-01T05:06:13.634Z,14.30
2022-09-01T05:08:23.683Z,14.40
2022-09-01T05:10:30.050Z,14.50
2022-09-01T05:14:37.047Z,14.60
2022-09-01T05:16:41.349Z,14.60
2022-09-01T05:18:47.864Z,14.60
2022-09-01T05:20:53.074Z,14.70
2022-09-01T05:22:56.618Z,14.70
2022-09-01T05:25:13.374Z,14.70
2022-09-01T05:27:18.064Z,14.80
2022-09-01T05:29:21.291Z,14.80
2022-09-01T05:33:29.411Z,14.90
2022-09-01T05:35:34.673Z,15.30
2022-09-01T05:37:39.808Z,15.50
2022-09-01T05:39:43.202Z,15.70
2022-09-01T05:41:48.118Z,16.00
2022-09-01T05:43:57.801Z,16.00
2022-09-01T05:46:07.654Z,16.00
2022-09-01T05:48:12.487Z,16.10
2022-09-01T05:50:16.631Z,16.20
2022-09-01T05:52:26.387Z,16.40
2022-09-01T05:54:29.741Z,16.40
2022-09-01T05:56:33.926Z,16.50
2022-09-01T06:01:03.952Z,16.40
2022-09-01T06:03:09.309Z,16.50
2022-09-01T06:05:14.036Z,16.40
2022-09-01T06:07:25.355Z,16.30
2022-09-01T06:09:28.967Z,16.40
2022-09-01T06:11:33.123Z,16.40
2022-09-01T06:13:37.157Z,16.50
2022-09-01T06:15:40.623Z,16.50
2022-09-01T06:17:45.017Z,16.40
2022-09-01T06:19:48.517Z,16.20
2022-09-01T06:21:52.149Z,16.20
2022-09-01T06:23:59.018Z,16.20
2022-09-01T06:26:03.825Z,16.20
2022-09-01T06:28:08.600Z,16.20
2022-09-01T06:30:23.184Z,16.30
2022-09-01T06:34:33.777Z,16.50
2022-09-01T06:36:41.155Z,16.40
2022-09-01T06:38:44.448Z,16.60
2022-09-01T06:40:51.033Z,16.60
2022-09-01T06:44:58.318Z,16.70
2022-09-01T06:47:01.841Z,16.80
2022-09-01T06:49:05.433Z,17.10
2022-09-01T06:51:20.096Z,17.30
2022-09-01T06:53:39.679Z,17.30
2022-09-01T06:58:06.150Z,17.40
2022-09-01T07:00:18.815Z,17.60
2022-09-01T07:02:26.417Z,18.00
2022-09-01T07:07:00.113Z,18.10
2022-09-01T07:09:22.139Z,18.40
2022-09-01T07:16:33.360Z,17.90
2022-09-01T07:18:38.789Z,18.30
2022-09-01T07:23:12.992Z,18.50
2022-09-01T07:25:17.484Z,18.40
2022-09-01T07:27:25.610Z,18.60
2022-09-01T07:34:46.456Z,19.00
2022-09-01T07:44:10.342Z,21.80
2022-09-01T07:53:31.630Z,23.60
2022-09-01T07:59:43.255Z,24.90
2022-09-01T08:01:48.235Z,25.00
2022-09-01T08:03:56.898Z,25.50
2022-09-01T08:06:06.637Z,26.10
2022-09-01T08:08:29.071Z,25.90
2022-09-01T08:10:32.863Z,25.50
2022-09-01T08:12:36.793Z,25.30
2022-09-01T08:14:40.498Z,25.00
2022-09-01T08:16:59.393Z,25.30
2022-09-01T08:19:16.560Z,24.90
2022-09-01T08:23:27.464Z,26.40
2022-09-01T08:25:31.437Z,27.70
2022-09-01T08:27:36.259Z,27.80
2022-09-01T08:29:39.537Z,28.80
2022-09-01T08:31:42.889Z,29.10
2022-09-01T08:33:48.557Z,29.00
2022-09-01T08:35:53.990Z,29.20
2022-09-01T08:37:57.588Z,29.80
2022-09-01T08:40:03.701Z,29.80
2022-09-01T08:42:14.988Z,29.00
2022-09-01T08:44:34.067Z,28.30
2022-09-01T08:46:43.344Z,27.40
2022-09-01T08:51:23.633Z,26.90
2022-09-01T08:55:44.086Z,27.20
2022-09-01T08:57:48.481Z,28.30
2022-09-01T08:59:53.197Z,29.00
2022-09-01T09:04:28.837Z,29.60
2022-09-01T09:06:44.822Z,30.50
2022-09-01T09:09:01.275Z,31.40
2022-09-01T09:13:16.962Z,33.10
2022-09-01T09:17:34.513Z,31.90
2022-09-01T09:19:40.146Z,31.20
2022-09-01T09:21:49.302Z,31.20
2022-09-01T09:24:00.834Z,32.10
2022-09-01T09:26:04.529Z,32.00
2022-09-01T09:28:07.996Z,31.90
2022-09-01T09:30:15.053Z,31.90
2022-09-01T09:32:39.295Z,31.40
2022-09-01T09:34:43.281Z,31.30
2022-09-01T09:39:11.962Z,30.60
2022-09-01T09:43:31.781Z,30.20
2022-09-01T09:45:41.642Z,30.70
2022-09-01T09:47:48.474Z,31.40
2022-09-01T09:50:13.701Z,31.90
2022-09-01T09:52:19.918Z,32.10
2022-09-01T09:54:26.345Z,32.70
2022-09-01T09:56:29.684Z,32.90
2022-09-01T09:58:40.534Z,33.70
2022-09-01T10:01:03.723Z,34.40
2022-09-01T10:03:12.225Z,35.00
2022-09-01T10:05:30.361Z,33.90
2022-09-01T10:07:38.016Z,33.10
2022-09-01T10:09:41.537Z,33.10
2022-09-01T10:13:49.915Z,33.70
2022-09-01T10:15:56.853Z,34.30
2022-09-01T10:18:20.508Z,34.30
2022-09-01T10:20:27.650Z,33.30
2022-09-01T10:22:32.808Z,32.00
2022-09-01T10:24:44.705Z,32.10
2022-09-01T10:26:54.243Z,32.30
2022-09-01T10:29:01.114Z,33.60
2022-09-01T10:33:20.070Z,34.50
2022-09-01T10:35:27.799Z,33.50
2022-09-01T10:37:32.337Z,33.10
2022-09-01T10:39:57.216Z,32.00
2022-09-01T10:42:07.713Z,30.10
2022-09-01T10:44:13.421Z,29.50
2022-09-01T10:46:50.858Z,29.90
2022-09-01T10:48:57.323Z,29.60
2022-09-01T10:51:51.575Z,28.70
2022-09-01T10:54:01.816Z,28.10
2022-09-01T10:56:20.003Z,27.30
2022-09-01T11:01:12.033Z,26.20
2022-09-01T11:03:56.308Z,26.20
2022-09-01T11:06:13.344Z,26.30
2022-09-01T11:08:44.240Z,27.00
2022-09-01T11:11:00.604Z,27.60
2022-09-01T11:13:34.875Z,27.50
2022-09-01T11:15:42.208Z,26.40
2022-09-01T11:17:59.817Z,25.70
2022-09-01T11:20:09.029Z,25.10
2022-09-01T11:22:27.601Z,25.50
2022-09-01T11:24:58.065Z,26.50
2022-09-01T11:27:08.831Z,26.90
2022-09-01T11:29:55.636Z,26.70
2022-09-01T11:32:00.003Z,27.10
2022-09-01T11:34:23.397Z,28.00
2022-09-01T11:36:32.203Z,28.50
2022-09-01T11:38:51.854Z,28.10
2022-09-01T11:40:57.436Z,28.00
2022-09-01T11:43:05.558Z,27.70
2022-09-01T11:45:21.713Z,27.50
2022-09-01T11:47:30.124Z,27.30
2022-09-01T11:49:36.090Z,27.30
2022-09-01T11:51:47.029Z,26.50
2022-09-01T11:53:56.618Z,25.60
2022-09-01T11:56:16.151Z,25.20
2022-09-01T11:58:39.097Z,24.70
2022-09-01T12:00:44.529Z,24.50
2022-09-01T12:02:50.369Z,24.20
2022-09-01T12:04:56.311Z,24.30
2022-09-01T12:07:01.996Z,24.20
2022-09-01T12:09:06.396Z,23.80
2022-09-01T12:11:13.678Z,23.60
2022-09-01T12:13:22.386Z,23.30
2022-09-01T12:15:28.188Z,23.30
2022-09-01T12:17:32.763Z,22.90
2022-09-01T12:19:38.629Z,22.70
2022-09-01T12:21:43.976Z,22.50
2022-09-01T12:25:51.468Z,22.70
2022-09-01T12:27:58.274Z,22.90
2022-09-01T12:30:02.125Z,23.10
2022-09-01T12:32:06.557Z,23.30
2022-09-01T12:34:26.707Z,23.50
2022-09-01T12:36:32.203Z,23.30
2022-09-01T12:38:35.478Z,23.30
2022-09-01T12:40:38.764Z,23.10
2022-09-01T12:42:51.873Z,22.90
2022-09-01T12:44:57.222Z,22.40
2022-09-01T12:47:03.273Z,22.10
2022-09-01T12:49:20.248Z,22.00
2022-09-01T12:51:29.289Z,22.10
2022-09-01T12:53:37.100Z,21.90
2022-09-01T12:55:47.960Z,21.70
2022-09-01T12:57:53.298Z,21.50
2022-09-01T13:00:15.138Z,21.40
2022-09-01T13:02:29.118Z,21.50
2022-09-01T13:04:34.202Z,21.30
2022-09-01T13:06:37.574Z,21.40
2022-09-01T13:08:40.834Z,21.60
2022-09-01T13:10:47.347Z,21.70
2022-09-01T13:12:50.963Z,21.90
2022-09-01T13:14:58.122Z,22.00
2022-09-01T13:17:01.536Z,22.10
2022-09-01T13:19:19.792Z,22.40
2022-09-01T13:23:37.647Z,22.70
2022-09-01T13:25:44.684Z,22.80
2022-09-01T13:27:48.775Z,22.70
2022-09-01T13:34:24.233Z,22.70
2022-09-01T13:36:46.153Z,22.60
2022-09-01T13:38:51.514Z,22.30
2022-09-01T13:41:07.599Z,22.00
2022-09-01T13:43:12.022Z,22.00
2022-09-01T13:45:20.297Z,21.90
2022-09-01T13:47:29.269Z,21.90
2022-09-01T13:51:56.226Z,21.80
2022-09-01T13:54:00.989Z,21.70
2022-09-01T13:56:05.090Z,21.60
2022-09-01T13:58:09.088Z,21.40
2022-09-01T14:00:17.250Z,21.40
2022-09-01T14:02:20.636Z,21.40
2022-09-01T14:04:24.162Z,21.30
2022-09-01T14:06:27.545Z,21.20
2022-09-01T14:08:31.434Z,21.30
2022-09-01T14:10:41.885Z,21.20
2022-09-01T14:12:45.918Z,21.20
2022-09-01T14:17:13.140Z,21.00
2022-09-01T14:19:16.856Z,20.90
2022-09-01T14:21:20.094Z,20.90
2022-09-01T14:23:23.865Z,21.00
2022-09-01T14:25:28.162Z,21.00
2022-09-01T14:27:33.467Z,21.10
2022-09-01T14:31:45.066Z,20.90
2022-09-01T14:33:49.219Z,21.00
2022-09-01T14:35:52.508Z,20.80
2022-09-01T14:37:56.395Z,20.80
2022-09-01T14:39:59.829Z,20.80
2022-09-01T14:42:06.818Z,20.70
2022-09-01T14:44:11.385Z,20.50
2022-09-01T14:46:15.119Z,20.60
2022-09-01T14:48:19.746Z,20.50
2022-09-01T14:50:24.323Z,20.40
2022-09-01T14:52:27.762Z,20.30
2022-09-01T14:54:31.435Z,20.30
2022-09-01T14:56:34.618Z,20.60
2022-09-01T14:58:37.809Z,20.40
2022-09-01T15:00:42.917Z,20.30
2022-09-01T15:02:46.669Z,20.40
2022-09-01T15:04:49.975Z,20.30
2022-09-01T15:06:53.630Z,20.20
2022-09-01T15:08:56.804Z,20.10
2022-09-01T15:11:01.430Z,20.00
2022-09-01T15:13:05.448Z,19.90
2022-09-01T15:15:10.515Z,19.90
2022-09-01T15:17:15.139Z,19.90
2022-09-01T15:19:18.586Z,19.90
2022-09-01T15:21:22.952Z,19.80
2022-09-01T15:23:27.373Z,19.90
2022-09-01T15:25:30.701Z,19.70
2022-09-01T15:27:37.265Z,19.60
2022-09-01T15:29:47.941Z,19.40
2022-09-01T15:31:51.544Z,19.40
2022-09-01T15:33:59.985Z,19.30
2022-09-01T15:38:08.153Z,19.20
2022-09-01T15:40:12.237Z,19.10
2022-09-01T15:42:17.283Z,19.20
2022-09-01T15:44:21.070Z,19.10
2022-09-01T15:46:32.019Z,19.10
2022-09-01T15:48:35.430Z,19.10
2022-09-01T15:50:40.281Z,19.00
2022-09-01T15:52:51.061Z,18.90
2022-09-01T15:54:54.497Z,18.90
2022-09-01T15:56:58.245Z,18.80
2022-09-01T15:59:03.504Z,18.80
2022-09-01T16:01:07.912Z,18.70
2022-09-01T16:03:14.691Z,18.80
2022-09-01T16:05:18.629Z,18.70
2022-09-01T16:07:23.322Z,18.70
2022-09-01T16:09:30.082Z,18.80
2022-09-01T16:11:33.428Z,18.80
2022-09-01T16:13:36.741Z,18.80
2022-09-01T16:15:47.194Z,18.70
2022-09-01T16:18:20.020Z,18.60
2022-09-01T16:20:25.466Z,18.50
2022-09-01T16:22:34.434Z,18.50
2022-09-01T16:24:43.909Z,18.40
2022-09-01T16:26:49.545Z,18.40
2022-09-01T16:28:56.296Z,18.40
2022-09-01T16:35:29.859Z,18.30
2022-09-01T16:37:47.064Z,18.30
2022-09-01T16:39:58.428Z,18.20
2022-09-01T16:44:19.950Z,18.20
2022-09-01T16:46:34.900Z,18.20
2022-09-01T16:48:44.042Z,18.10
2022-09-01T16:50:55.895Z,18.10
2022-09-01T16:53:16.719Z,18.10
2022-09-01T16:55:27.089Z,18.00
2022-09-01T16:57:41.536Z,18.00
2022-09-01T16:59:55.558Z,18.00
2022-09-01T17:02:10.688Z,17.90
2022-09-01T17:04:27.069Z,17.90
2022-09-01T17:06:32.205Z,17.90
2022-09-01T17:08:55.005Z,18.00
2022-09-01T17:11:05.777Z,17.90
2022-09-01T17:13:23.031Z,17.80
2022-09-01T17:15:40.097Z,17.80
2022-09-01T17:17:47.690Z,17.70
2022-09-01T17:19:54.389Z,17.70
2022-09-01T17:22:04.852Z,17.60
2022-09-01T17:24:19.309Z,17.60
2022-09-01T17:26:26.960Z,17.60
2022-09-01T17:28:35.928Z,17.60
2022-09-01T17:30:47.118Z,17.60
2022-09-01T17:33:05.916Z,17.60
2022-09-01T17:35:27.568Z,17.50
2022-09-01T17:40:00.583Z,17.50
2022-09-01T17:42:11.173Z,17.50
2022-09-01T17:44:21.270Z,17.50
2022-09-01T17:46:34.406Z,17.50
2022-09-01T17:48:44.009Z,17.40
2022-09-01T17:50:58.150Z,17.40
2022-09-01T17:53:12.090Z,17.50
2022-09-01T17:55:25.924Z,17.40
2022-09-01T17:57:38.242Z,17.30
2022-09-01T17:59:48.178Z,17.30
2022-09-01T18:02:05.185Z,17.30
2022-09-01T18:04:45.842Z,17.30
2022-09-01T18:06:54.034Z,17.30
2022-09-01T18:08:59.370Z,17.30
2022-09-01T18:11:12.536Z,17.30
2022-09-01T18:13:30.690Z,17.30
2022-09-01T18:15:44.887Z,17.30
2022-09-01T18:17:55.422Z,17.20
2022-09-01T18:20:07.318Z,17.20
2022-09-01T18:22:14.597Z,17.20
2022-09-01T18:24:22.124Z,17.20
2022-09-01T18:26:32.431Z,17.20
2022-09-01T18:28:36.334Z,17.20
2022-09-01T18:30:55.729Z,17.20
2022-09-01T18:33:08.198Z,17.10
2022-09-01T18:35:24.206Z,17.10
2022-09-01T18:37:33.594Z,17.10
2022-09-01T18:39:49.601Z,17.10
2022-09-01T18:42:08.984Z,17.10
2022-09-01T18:44:34.853Z,17.10
2022-09-01T18:46:49.493Z,17.20
2022-09-01T18:49:09.464Z,17.10
2022-09-01T18:51:21.998Z,17.10
2022-09-01T18:53:36.163Z,17.10
2022-09-01T18:55:47.613Z,17.10
2022-09-01T18:57:54.497Z,17.10
2022-09-01T19:00:18.985Z,17.10
2022-09-01T19:02:39.620Z,17.10
2022-09-01T19:04:46.005Z,17.00
2022-09-01T19:07:01.341Z,17.00
2022-09-01T19:09:18.658Z,17.10
2022-09-01T19:11:31.577Z,17.00
2022-09-01T19:14:07.618Z,17.00
2022-09-01T19:16:20.574Z,17.00
2022-09-01T19:18:32.173Z,16.90
2022-09-01T19:20:42.889Z,16.90
2022-09-01T19:22:52.530Z,16.90
2022-09-01T19:25:24.689Z,17.00
2022-09-01T19:27:33.099Z,17.00
2022-09-01T19:29:44.157Z,16.80
2022-09-01T19:31:50.582Z,16.70
2022-09-01T19:33:56.767Z,16.80
2022-09-01T19:36:05.237Z,16.80
2022-09-01T19:38:09.371Z,16.80
2022-09-01T19:40:13.244Z,16.80
2022-09-01T19:42:27.286Z,16.80
2022-09-01T19:44:42.892Z,16.80
2022-09-01T20:12:17.897Z,16.00
2022-09-01T20:14:45.506Z,15.90
2022-09-01T20:16:52.571Z,15.80
2022-09-01T20:19:03.088Z,15.80
2022-09-01T20:21:20.937Z,15.70
2022-09-01T20:23:29.416Z,15.70
2022-09-01T20:25:41.222Z,15.70
2022-09-01T20:27:51.965Z,15.60
2022-09-01T20:30:02.601Z,15.50
2022-09-01T20:32:08.221Z,15.40
2022-09-01T20:34:16.151Z,15.40
2022-09-01T20:36:24.253Z,15.50
2022-09-01T20:38:50.856Z,15.40
2022-09-01T20:40:57.673Z,15.40
2022-09-01T20:43:18.681Z,15.30
2022-09-01T20:45:23.693Z,15.20
2022-09-01T20:47:30.122Z,15.20
2022-09-01T20:49:36.197Z,15.20
2022-09-01T20:51:45.851Z,15.10
2022-09-01T20:54:02.495Z,15.00
2022-09-01T20:56:13.027Z,14.90
2022-09-01T20:58:28.095Z,14.80
2022-09-01T21:00:38.509Z,14.80
2022-09-01T21:02:52.059Z,14.80
2022-09-01T21:05:05.823Z,14.80
2022-09-01T21:07:14.891Z,14.80
2022-09-01T21:09:29.876Z,14.70
2022-09-01T21:11:42.316Z,14.70
2022-09-01T21:13:57.351Z,14.70
2022-09-01T21:16:10.153Z,14.70
2022-09-01T21:18:30.579Z,14.60
2022-09-01T21:20:47.602Z,14.70
2022-09-01T21:22:51.690Z,14.60
2022-09-01T21:24:54.966Z,14.60
2022-09-01T21:27:01.201Z,14.60
2022-09-01T21:29:17.532Z,14.60
2022-09-01T21:31:21.487Z,14.60
2022-09-01T21:33:27.697Z,14.60
2022-09-01T21:35:31.154Z,14.60
2022-09-01T21:37:34.468Z,14.60
2022-09-01T21:39:37.782Z,14.60
2022-09-01T21:41:41.362Z,14.60
2022-09-01T21:43:46.695Z,14.70
2022-09-01T21:45:54.646Z,14.60
2022-09-01T21:47:58.131Z,14.70
2022-09-01T21:50:02.727Z,14.70
2022-09-01T21:52:06.710Z,14.60
2022-09-01T21:54:10.125Z,14.60
2022-09-01T21:56:14.950Z,14.70
2022-09-01T21:58:18.203Z,14.70
2022-09-01T22:00:23.886Z,14.70
2022-09-01T22:02:28.544Z,14.70
2022-09-01T22:06:39.880Z,14.90
2022-09-01T22:08:43.166Z,14.80
2022-09-01T22:10:50.541Z,14.80
2022-09-01T22:12:54.095Z,14.80
2022-09-01T22:14:57.245Z,14.80
2022-09-01T22:17:04.148Z,14.90
2022-09-01T22:19:07.993Z,14.80
2022-09-01T22:21:11.514Z,14.80
2022-09-01T22:23:17.657Z,14.80
2022-09-01T22:25:24.036Z,14.80
2022-09-01T22:27:27.918Z,14.70
2022-09-01T22:29:31.308Z,14.70
2022-09-01T22:31:37.428Z,14.60
2022-09-01T22:33:41.165Z,14.60
2022-09-01T22:35:45.520Z,14.70
2022-09-01T22:37:48.930Z,14.70
2022-09-01T22:39:53.720Z,14.70
2022-09-01T22:41:57.035Z,14.60
2022-09-01T22:44:01.451Z,14.80
2022-09-01T22:46:07.443Z,15.00
2022-09-01T22:48:11.728Z,15.10
2022-09-01T22:50:15.179Z,15.10
2022-09-01T22:52:18.578Z,15.10
2022-09-01T22:54:21.849Z,15.20
2022-09-01T22:56:28.855Z,15.30
2022-09-01T22:58:32.149Z,15.40
2022-09-01T23:00:36.058Z,15.50
2022-09-01T23:02:39.525Z,15.40
2022-09-01T23:04:43.045Z,15.40
2022-09-01T23:06:49.574Z,15.50
2022-09-01T23:08:53.090Z,15.50
2022-09-01T23:10:56.335Z,15.70
2022-09-01T23:13:01.063Z,15.80
2022-09-01T23:15:05.640Z,15.80
2022-09-01T23:17:08.910Z,15.70
2022-09-01T23:19:12.214Z,15.80
2022-09-01T23:21:17.558Z,15.80
2022-09-01T23:23:21.216Z,15.80
2022-09-01T23:25:25.499Z,15.90
2022-09-01T23:27:28.785Z,15.90
2022-09-01T23:29:33.386Z,15.90
2022-09-01T23:31:39.187Z,15.80
2022-09-01T23:33:42.842Z,15.80
2022-09-01T23:35:48.261Z,15.70
2022-09-01T23:37:51.536Z,15.70
2022-09-01T23:39:55.593Z,15.70
2022-09-01T23:41:59.512Z,15.70
2022-09-01T23:44:05.298Z,15.90
2022-09-01T23:46:17.798Z,15.90
2022-09-01T23:48:22.033Z,15.80
2022-09-01T23:50:25.520Z,15.70
2022-09-01T23:52:28.694Z,15.70
2022-09-01T23:54:32.206Z,15.70
2022-09-01T23:56:35.444Z,15.60
2022-09-01T23:58:40.122Z,15.50
